createdAt,value
2018-03-25T00:00:10.026Z,36.67
2018-03-25T00:02:39.098Z,35.70
2018-03-25T00:05:09.053Z,37.95
2018-03-25T00:07:38.170Z,40.17
2018-03-25T00:10:07.249Z,38.40
2018-03-25T00:12:36.342Z,44.38
2018-03-25T00:15:06.254Z,43.33
2018-03-25T00:17:35.339Z,42.92
2018-03-25T00:20:04.422Z,39.00
2018-03-25T00:22:33.508Z,39.67
2018-03-25T00:25:03.493Z,39.70
2018-03-25T00:27:32.654Z,41.40
2018-03-25T00:30:02.498Z,38.03
2018-03-25T00:32:31.586Z,40.97
2018-03-25T00:35:01.493Z,39.85
2018-03-25T00:37:30.589Z,38.05
2018-03-25T00:39:59.688Z,38.88
2018-03-25T00:42:28.840Z,37.65
2018-03-25T00:44:58.682Z,37.20
2018-03-25T00:47:28.529Z,34.90
2018-03-25T00:49:57.733Z,36.80
2018-03-25T00:52:26.805Z,38.75
2018-03-25T00:54:55.887Z,37.05
2018-03-25T00:57:24.994Z,40.45
2018-03-25T00:59:54.070Z,37.15
2018-03-25T01:02:23.211Z,36.30
2018-03-25T01:04:52.330Z,34.30
2018-03-25T01:07:21.478Z,35.88
2018-03-25T01:09:50.603Z,34.00
2018-03-25T01:12:20.438Z,39.10
2018-03-25T01:14:49.514Z,34.25
2018-03-25T01:17:18.598Z,34.40
2018-03-25T01:19:47.719Z,34.53
2018-03-25T01:22:16.806Z,35.08
2018-03-25T01:24:45.886Z,33.70
2018-03-25T01:27:15.726Z,34.60
2018-03-25T01:29:44.801Z,34.03
2018-03-25T01:32:13.878Z,34.60
2018-03-25T01:34:43.068Z,33.95
2018-03-25T01:37:12.162Z,34.78
2018-03-25T01:39:41.237Z,34.83
2018-03-25T01:42:11.410Z,34.78
2018-03-25T01:44:40.535Z,36.47
2018-03-25T01:47:09.610Z,34.10
2018-03-25T01:49:39.449Z,32.60
2018-03-25T01:52:09.298Z,31.77
2018-03-25T01:54:39.337Z,34.67
2018-03-25T01:57:09.173Z,35.30
2018-03-25T01:59:38.248Z,33.00
2018-03-25T02:02:08.095Z,34.67
2018-03-25T02:04:37.169Z,33.10
2018-03-25T02:07:07.390Z,33.65
2018-03-25T02:09:36.465Z,33.05
2018-03-25T02:12:05.541Z,37.20
2018-03-25T02:14:35.382Z,35.25
2018-03-25T02:17:04.466Z,33.10
2018-03-25T02:19:34.337Z,34.85
2018-03-25T02:22:03.422Z,34.75
2018-03-25T02:24:32.581Z,32.45
2018-03-25T02:27:01.670Z,34.15
2018-03-25T02:29:30.749Z,32.60
2018-03-25T02:32:00.592Z,33.42
2018-03-25T02:34:29.706Z,32.88
2018-03-25T02:36:58.804Z,33.70
2018-03-25T02:39:27.928Z,32.88
2018-03-25T02:41:57.171Z,33.08
2018-03-25T02:44:26.270Z,32.35
2018-03-25T02:46:55.410Z,33.65
2018-03-25T02:49:24.524Z,32.42
2018-03-25T02:51:53.639Z,33.00
2018-03-25T02:54:22.790Z,34.35
2018-03-25T02:56:51.880Z,31.27
2018-03-25T02:59:21.045Z,30.95
2018-03-25T03:01:50.982Z,34.55
2018-03-25T03:04:20.514Z,31.67
2018-03-25T03:06:49.600Z,32.75
2018-03-25T03:09:18.682Z,32.45
2018-03-25T03:11:47.795Z,31.25
2018-03-25T03:14:16.880Z,32.80
2018-03-25T03:16:46.730Z,30.50
2018-03-25T03:19:16.063Z,31.15
2018-03-25T03:21:45.141Z,31.15
2018-03-25T03:24:14.218Z,32.13
2018-03-25T03:26:43.345Z,30.23
2018-03-25T03:29:13.185Z,31.02
2018-03-25T03:31:42.283Z,32.60
2018-03-25T03:34:11.380Z,30.70
2018-03-25T03:36:40.462Z,32.03
2018-03-25T03:39:09.670Z,30.02
2018-03-25T03:41:38.770Z,32.35
2018-03-25T03:44:08.258Z,30.05
2018-03-25T03:46:37.393Z,30.80
2018-03-25T03:49:06.982Z,31.25
2018-03-25T03:51:36.829Z,30.10
2018-03-25T03:54:06.427Z,30.30
2018-03-25T03:56:35.610Z,32.28
2018-03-25T03:59:04.730Z,30.10
2018-03-25T04:01:33.826Z,29.27
2018-03-25T04:04:03.006Z,29.20
2018-03-25T04:06:32.093Z,30.58
2018-03-25T04:09:01.243Z,30.98
2018-03-25T04:11:30.354Z,29.67
2018-03-25T04:13:59.442Z,28.50
2018-03-25T04:16:28.522Z,30.77
2018-03-25T04:18:58.371Z,29.12
2018-03-25T04:21:27.454Z,29.37
2018-03-25T04:23:57.309Z,30.00
2018-03-25T04:26:26.441Z,28.15
2018-03-25T04:28:55.521Z,26.95
2018-03-25T04:31:24.601Z,28.62
2018-03-25T04:33:53.714Z,28.42
2018-03-25T04:36:23.610Z,27.55
2018-03-25T04:38:52.722Z,27.40
2018-03-25T04:41:22.473Z,28.45
2018-03-25T04:43:52.326Z,27.83
2018-03-25T04:46:21.453Z,29.02
2018-03-25T04:48:50.535Z,29.77
2018-03-25T04:51:20.384Z,28.40
2018-03-25T04:53:49.513Z,27.02
2018-03-25T04:56:18.629Z,28.85
2018-03-25T04:58:47.773Z,26.52
2018-03-25T05:01:16.855Z,27.40
2018-03-25T05:03:45.937Z,28.65
2018-03-25T05:06:15.024Z,28.10
2018-03-25T05:08:44.102Z,28.20
2018-03-25T05:11:13.194Z,28.75
2018-03-25T05:13:42.289Z,29.10
2018-03-25T05:16:11.374Z,27.37
2018-03-25T05:18:41.337Z,27.55
2018-03-25T05:21:10.418Z,29.55
2018-03-25T05:23:40.422Z,28.25
2018-03-25T05:26:09.515Z,27.87
2018-03-25T05:28:38.656Z,28.87
2018-03-25T05:31:08.521Z,29.80
2018-03-25T05:33:37.609Z,27.60
2018-03-25T05:36:07.457Z,30.07
2018-03-25T05:38:36.533Z,30.90
2018-03-25T05:41:06.381Z,29.30
2018-03-25T05:43:35.464Z,27.92
2018-03-25T05:46:04.569Z,31.12
2018-03-25T05:48:34.477Z,26.42
2018-03-25T05:51:03.550Z,29.10
2018-03-25T05:53:32.634Z,31.33
2018-03-25T05:58:37.046Z,29.87
2018-03-25T06:01:06.218Z,31.45
2018-03-25T06:03:36.081Z,30.58
2018-03-25T06:06:05.165Z,32.92
2018-03-25T06:08:34.318Z,31.58
2018-03-25T06:11:03.397Z,28.50
2018-03-25T06:13:32.486Z,29.83
2018-03-25T06:16:01.658Z,30.92
2018-03-25T06:18:30.745Z,31.23
2018-03-25T06:20:59.831Z,31.83
2018-03-25T06:23:28.918Z,30.98
2018-03-25T06:25:58.077Z,31.35
2018-03-25T06:28:27.161Z,29.65
2018-03-25T06:30:56.265Z,29.33
2018-03-25T06:33:26.098Z,27.73
2018-03-25T06:35:55.333Z,28.38
2018-03-25T06:38:24.464Z,28.38
2018-03-25T06:40:53.589Z,30.05
2018-03-25T06:43:22.762Z,29.10
2018-03-25T06:45:51.894Z,28.75
2018-03-25T06:48:20.964Z,30.00
2018-03-25T06:50:50.862Z,29.15
2018-03-25T06:53:19.934Z,29.02
2018-03-25T06:55:49.160Z,28.85
2018-03-25T06:58:18.229Z,26.95
2018-03-25T07:00:47.297Z,27.58
2018-03-25T07:03:16.441Z,27.00
2018-03-25T07:05:46.327Z,27.60
2018-03-25T07:08:15.418Z,29.75
2018-03-25T07:10:44.490Z,28.30
2018-03-25T07:13:14.328Z,29.17
2018-03-25T07:15:43.389Z,27.00
2018-03-25T07:18:12.729Z,28.35
2018-03-25T07:20:42.582Z,26.50
2018-03-25T07:23:11.655Z,28.17
2018-03-25T07:25:40.721Z,26.98
2018-03-25T07:28:09.794Z,27.20
2018-03-25T07:30:39.625Z,27.50
2018-03-25T07:33:09.461Z,27.45
2018-03-25T07:35:38.529Z,26.10
2018-03-25T07:38:08.478Z,26.25
2018-03-25T07:40:38.343Z,27.95
2018-03-25T07:43:07.418Z,28.05
2018-03-25T07:45:37.276Z,28.40
2018-03-25T07:48:06.418Z,26.25
2018-03-25T07:50:35.486Z,26.20
2018-03-25T07:53:04.550Z,27.77
2018-03-25T07:55:33.619Z,27.87
2018-03-25T07:58:02.698Z,27.77
2018-03-25T08:00:32.582Z,28.33
2018-03-25T08:03:01.671Z,27.80
2018-03-25T08:05:30.738Z,28.62
2018-03-25T08:07:59.818Z,28.95
2018-03-25T08:10:28.940Z,28.15
2018-03-25T08:12:58.005Z,29.05
2018-03-25T08:15:27.069Z,31.37
2018-03-25T08:17:56.194Z,30.35
2018-03-25T08:20:26.073Z,27.73
2018-03-25T08:22:55.155Z,29.98
2018-03-25T08:25:24.225Z,29.35
2018-03-25T08:27:53.469Z,30.33
2018-03-25T08:30:22.515Z,31.10
2018-03-25T08:32:51.646Z,31.15
2018-03-25T08:35:20.717Z,28.77
2018-03-25T08:37:49.969Z,30.60
2018-03-25T08:40:19.151Z,29.83
2018-03-25T08:42:48.223Z,29.48
2018-03-25T08:45:18.123Z,30.75
2018-03-25T08:47:47.201Z,30.37
2018-03-25T08:50:16.326Z,30.83
2018-03-25T08:52:45.561Z,32.17
2018-03-25T08:55:15.417Z,29.20
2018-03-25T08:57:45.255Z,29.92
2018-03-25T09:00:15.098Z,32.65
2018-03-25T09:02:44.169Z,34.38
2018-03-25T09:05:13.244Z,32.03
2018-03-25T09:07:42.351Z,31.25
2018-03-25T09:10:11.418Z,32.22
2018-03-25T09:12:41.371Z,31.08
2018-03-25T09:15:10.443Z,31.17
2018-03-25T09:17:40.276Z,30.42
2018-03-25T09:20:10.113Z,29.58
2018-03-25T09:22:39.209Z,31.42
2018-03-25T09:25:09.074Z,29.92
2018-03-25T09:27:38.150Z,31.30
2018-03-25T09:30:08.043Z,30.67
2018-03-25T09:32:37.221Z,31.55
2018-03-25T09:35:06.293Z,32.40
2018-03-25T09:37:36.153Z,32.03
2018-03-25T09:40:05.286Z,33.90
2018-03-25T09:42:34.353Z,33.38
2018-03-25T09:45:04.198Z,30.83
2018-03-25T09:47:33.325Z,32.72
2018-03-25T09:50:02.460Z,33.70
2018-03-25T09:52:31.538Z,32.35
2018-03-25T09:55:00.609Z,31.15
2018-03-25T09:57:29.719Z,31.23
2018-03-25T09:59:58.844Z,31.52
2018-03-25T10:05:34.130Z,32.17
2018-03-25T10:08:03.970Z,33.05
2018-03-25T10:10:33.832Z,31.85
2018-03-25T10:13:03.282Z,31.60
2018-03-25T10:15:32.458Z,32.33
2018-03-25T10:18:01.534Z,31.90
2018-03-25T10:20:31.365Z,32.10
2018-03-25T10:23:01.231Z,32.47
2018-03-25T10:25:30.338Z,33.70
2018-03-25T10:27:59.406Z,33.25
2018-03-25T10:30:29.248Z,32.58
2018-03-25T10:32:58.318Z,31.45
2018-03-25T10:35:27.425Z,31.62
2018-03-25T10:37:56.558Z,32.63
2018-03-25T10:40:26.433Z,33.00
2018-03-25T10:42:55.524Z,34.83
2018-03-25T10:45:24.603Z,33.17
2018-03-25T10:47:54.451Z,32.28
2018-03-25T10:50:23.588Z,32.03
2018-03-25T10:52:52.766Z,34.72
2018-03-25T10:55:22.617Z,31.48
2018-03-25T10:57:51.749Z,33.03
2018-03-25T11:00:20.901Z,33.22
2018-03-25T11:02:50.765Z,31.50
2018-03-25T11:05:19.879Z,32.30
2018-03-25T11:07:49.018Z,32.08
2018-03-25T11:10:18.130Z,32.25
2018-03-25T11:12:47.217Z,32.55
2018-03-25T11:15:16.310Z,31.87
2018-03-25T11:17:45.442Z,31.92
2018-03-25T11:20:14.574Z,31.23
2018-03-25T11:22:43.674Z,32.42
2018-03-25T11:25:12.768Z,32.75
2018-03-25T11:27:41.860Z,32.67
2018-03-25T11:30:11.018Z,34.28
2018-03-25T11:32:40.114Z,30.88
2018-03-25T11:35:09.973Z,30.73
2018-03-25T11:37:39.091Z,31.60
2018-03-25T11:40:08.981Z,31.33
2018-03-25T11:42:38.063Z,32.90
2018-03-25T11:45:07.153Z,31.92
2018-03-25T11:47:37.043Z,31.00
2018-03-25T11:50:06.126Z,31.23
2018-03-25T11:52:35.251Z,32.40
2018-03-25T11:55:04.341Z,30.75
2018-03-25T11:57:33.466Z,32.33
2018-03-25T12:00:02.590Z,32.22
2018-03-25T12:02:31.681Z,32.72
2018-03-25T12:05:00.806Z,31.50
2018-03-25T12:07:29.900Z,29.75
2018-03-25T12:09:58.994Z,29.70
2018-03-25T12:12:28.094Z,31.02
2018-03-25T12:14:57.290Z,30.25
2018-03-25T12:17:26.559Z,28.10
2018-03-25T12:19:55.665Z,31.13
2018-03-25T12:22:24.985Z,31.08
2018-03-25T12:24:54.080Z,30.17
2018-03-25T12:27:23.166Z,30.23
2018-03-25T12:29:52.260Z,28.17
2018-03-25T12:32:22.206Z,29.00
2018-03-25T12:34:52.377Z,28.27
2018-03-25T12:37:21.523Z,29.77
2018-03-25T12:39:50.641Z,29.47
2018-03-25T12:42:19.918Z,26.80
2018-03-25T12:44:49.091Z,28.50
2018-03-25T12:47:18.942Z,29.37
2018-03-25T12:49:48.021Z,28.03
2018-03-25T12:52:17.894Z,31.63
2018-03-25T12:54:47.035Z,33.17
2018-03-25T12:57:16.123Z,31.27
2018-03-25T12:59:45.217Z,31.93
2018-03-25T13:02:14.297Z,30.53
2018-03-25T13:04:44.154Z,31.67
2018-03-25T13:07:13.246Z,32.33
2018-03-25T13:09:42.486Z,32.97
2018-03-25T13:12:11.598Z,32.83
2018-03-25T13:14:40.718Z,31.93
2018-03-25T13:17:09.813Z,30.33
2018-03-25T13:19:38.918Z,31.77
2018-03-25T13:22:08.010Z,32.67
2018-03-25T13:24:37.145Z,33.87
2018-03-25T13:27:06.330Z,33.60
2018-03-25T13:29:35.458Z,34.63
2018-03-25T13:32:04.613Z,32.20
2018-03-25T13:34:33.725Z,32.87
2018-03-25T13:37:02.822Z,34.33
2018-03-25T13:39:31.911Z,34.70
2018-03-25T13:42:00.998Z,31.87
2018-03-25T13:44:30.239Z,32.63
2018-03-25T13:46:59.498Z,33.20
2018-03-25T13:49:28.650Z,30.93
2018-03-25T13:51:57.806Z,32.97
2018-03-25T13:54:26.926Z,31.53
2018-03-25T13:56:56.814Z,31.70
2018-03-25T13:59:25.935Z,32.67
2018-03-25T14:01:55.021Z,34.20
2018-03-25T14:04:24.118Z,32.77
2018-03-25T14:06:53.209Z,34.83
2018-03-25T14:09:23.063Z,33.80
2018-03-25T14:11:52.158Z,33.17
2018-03-25T14:14:22.047Z,34.50
2018-03-25T14:16:51.277Z,34.07
2018-03-25T14:19:20.462Z,33.90
2018-03-25T14:21:49.587Z,33.90
2018-03-25T14:24:18.681Z,35.93
2018-03-25T14:26:47.774Z,33.40
2018-03-25T14:29:16.865Z,34.63
2018-03-25T14:31:45.984Z,34.67
2018-03-25T14:34:15.107Z,36.23
2018-03-25T14:36:44.215Z,36.60
2018-03-25T14:39:13.329Z,34.20
2018-03-25T14:41:42.499Z,35.63
2018-03-25T14:44:12.585Z,35.20
2018-03-25T14:46:41.674Z,38.37
2018-03-25T14:49:10.784Z,35.20
2018-03-25T14:51:39.873Z,35.60
2018-03-25T14:54:09.727Z,35.07
2018-03-25T14:56:38.849Z,37.20
2018-03-25T14:59:07.946Z,34.93
2018-03-25T15:01:37.034Z,35.93
2018-03-25T15:04:07.026Z,36.55
2018-03-25T15:06:36.170Z,33.53
2018-03-25T15:09:06.034Z,36.40
2018-03-25T15:11:35.125Z,35.70
2018-03-25T15:14:04.220Z,34.47
2018-03-25T15:16:34.618Z,35.73
2018-03-25T15:19:03.706Z,37.50
2018-03-25T15:21:32.929Z,35.33
2018-03-25T15:24:02.023Z,33.20
2018-03-25T15:26:31.161Z,33.57
2018-03-25T15:29:00.259Z,32.47
2018-03-25T15:31:29.345Z,33.43
2018-03-25T15:33:58.435Z,34.13
2018-03-25T15:36:28.298Z,34.80
2018-03-25T15:38:57.404Z,34.47
2018-03-25T15:41:26.600Z,34.00
2018-03-25T15:43:55.701Z,33.60
2018-03-25T15:46:25.568Z,33.83
2018-03-25T15:48:54.718Z,34.00
2018-03-25T15:51:23.807Z,32.60
2018-03-25T15:53:52.909Z,33.40
2018-03-25T15:56:21.998Z,33.30
2018-03-25T15:58:51.258Z,36.23
2018-03-25T16:01:20.362Z,34.07
2018-03-25T16:03:49.460Z,34.93
2018-03-25T16:06:18.549Z,33.10
2018-03-25T16:08:48.935Z,35.07
2018-03-25T16:11:18.821Z,35.30
2018-03-25T16:13:47.915Z,34.00
2018-03-25T16:16:17.031Z,34.35
2018-03-25T16:18:46.139Z,32.57
2018-03-25T16:21:15.300Z,34.92
2018-03-25T16:23:45.155Z,32.10
2018-03-25T16:26:15.010Z,33.47
2018-03-25T16:28:44.118Z,31.00
2018-03-25T16:31:13.217Z,33.33
2018-03-25T16:33:42.464Z,32.05
2018-03-25T16:36:11.561Z,32.03
2018-03-25T16:38:40.739Z,31.98
2018-03-25T16:41:10.621Z,31.67
2018-03-25T16:43:39.719Z,36.03
2018-03-25T16:46:08.867Z,33.47
2018-03-25T16:48:37.971Z,31.90
2018-03-25T16:51:07.063Z,32.85
2018-03-25T16:53:36.263Z,32.90
2018-03-25T16:56:05.438Z,32.67
2018-03-25T16:58:35.303Z,32.08
2018-03-25T17:01:04.435Z,32.95
2018-03-25T17:03:33.579Z,32.53
2018-03-25T17:06:03.446Z,29.70
2018-03-25T17:08:32.726Z,31.60
2018-03-25T17:11:02.629Z,31.30
2018-03-25T17:13:31.732Z,32.97
2018-03-25T17:16:00.926Z,30.67
2018-03-25T17:18:30.030Z,31.70
2018-03-25T17:20:59.150Z,32.95
2018-03-25T17:23:28.286Z,32.00
2018-03-25T17:25:57.375Z,33.60
2018-03-25T17:28:26.441Z,32.70
2018-03-25T17:30:56.282Z,31.85
2018-03-25T17:33:25.368Z,33.50
2018-03-25T17:35:55.286Z,31.98
2018-03-25T17:38:24.362Z,32.47
2018-03-25T17:40:53.490Z,33.28
2018-03-25T17:43:22.606Z,34.95
2018-03-25T17:45:51.720Z,33.53
2018-03-25T17:48:20.835Z,66.65
2018-03-25T17:50:49.970Z,82.80
2018-03-25T17:53:19.893Z,43.08
2018-03-25T17:55:49.088Z,40.03
2018-03-25T17:58:18.850Z,36.08
2018-03-25T18:00:48.770Z,38.85
2018-03-25T18:03:18.643Z,35.63
2018-03-25T18:05:47.713Z,37.28
2018-03-25T18:08:17.557Z,37.78
2018-03-25T18:10:46.638Z,37.92
2018-03-25T18:13:16.470Z,39.45
2018-03-25T18:15:46.321Z,41.72
2018-03-25T18:18:16.016Z,43.87
2018-03-25T18:20:56.292Z,52.92
2018-03-25T18:23:15.107Z,52.97
2018-03-25T18:25:44.204Z,59.33
2018-03-25T18:28:14.122Z,67.55
2018-03-25T18:30:43.280Z,105.30
2018-03-25T18:33:12.362Z,167.18
2018-03-25T18:35:41.450Z,84.62
2018-03-25T18:38:10.622Z,88.95
2018-03-25T18:40:39.739Z,85.18
2018-03-25T18:43:08.852Z,87.18
2018-03-25T18:45:38.011Z,100.53
2018-03-25T18:48:07.110Z,104.12
2018-03-25T18:50:36.276Z,115.95
2018-03-25T18:53:05.373Z,115.78
2018-03-25T18:55:35.171Z,95.15
2018-03-25T18:58:04.304Z,95.38
2018-03-25T19:00:33.484Z,87.57
2018-03-25T19:03:02.593Z,73.15
2018-03-25T19:05:31.684Z,84.72
2018-03-25T19:08:01.607Z,69.43
2018-03-25T19:10:31.461Z,63.25
2018-03-25T19:13:00.613Z,61.67
2018-03-25T19:15:29.811Z,62.65
2018-03-25T19:17:58.925Z,60.40
2018-03-25T19:20:28.128Z,53.55
2018-03-25T19:22:57.348Z,58.70
2018-03-25T19:25:26.440Z,61.65
2018-03-25T19:27:55.523Z,57.33
2018-03-25T19:30:25.401Z,57.75
2018-03-25T19:32:54.564Z,51.65
2018-03-25T19:35:24.417Z,46.42
2018-03-25T19:37:53.520Z,44.58
2018-03-25T19:40:22.605Z,45.67
2018-03-25T19:42:52.494Z,49.60
2018-03-25T19:45:21.577Z,45.88
2018-03-25T19:47:51.472Z,87.62
2018-03-25T19:50:21.321Z,46.92
2018-03-25T19:52:50.478Z,50.28
2018-03-25T19:55:19.568Z,44.40
2018-03-25T19:57:48.661Z,47.15
2018-03-25T20:00:17.745Z,44.38
2018-03-25T20:02:47.595Z,44.00
2018-03-25T20:05:16.780Z,45.75
2018-03-25T20:07:45.859Z,46.53
2018-03-25T20:10:15.064Z,44.15
2018-03-25T20:12:44.160Z,43.92
2018-03-25T20:15:13.744Z,46.28
2018-03-25T20:17:43.710Z,42.30
2018-03-25T20:20:12.787Z,44.67
2018-03-25T20:22:42.626Z,42.95
2018-03-25T20:25:11.751Z,45.58
2018-03-25T20:27:40.827Z,42.05
2018-03-25T20:30:10.899Z,44.72
2018-03-25T20:32:40.027Z,43.87
2018-03-25T20:35:09.112Z,42.70
2018-03-25T20:37:38.226Z,39.47
2018-03-25T20:40:07.307Z,42.53
2018-03-25T20:42:37.142Z,43.25
2018-03-25T20:45:06.282Z,42.25
2018-03-25T20:47:35.377Z,41.65
2018-03-25T20:50:04.451Z,41.15
2018-03-25T20:52:33.563Z,43.05
2018-03-25T20:55:02.705Z,44.22
2018-03-25T20:57:31.774Z,44.53
2018-03-25T21:00:00.876Z,43.75
2018-03-25T21:02:30.006Z,43.65
2018-03-25T21:04:59.115Z,41.92
2018-03-25T21:07:28.950Z,40.35
2018-03-25T21:09:58.828Z,41.70
2018-03-25T21:12:27.929Z,39.30
2018-03-25T21:14:57.018Z,40.38
2018-03-25T21:17:26.178Z,37.97
2018-03-25T21:19:55.247Z,38.03
2018-03-25T21:22:24.324Z,39.88
2018-03-25T21:24:53.395Z,39.00
2018-03-25T21:27:22.534Z,35.70
2018-03-25T21:29:51.609Z,36.58
2018-03-25T21:32:20.703Z,33.45
2018-03-25T21:34:49.818Z,34.08
2018-03-25T21:37:18.971Z,31.30
2018-03-25T21:39:48.050Z,30.67
2018-03-25T21:42:17.122Z,30.85
2018-03-25T21:44:46.988Z,30.60
2018-03-25T21:47:16.063Z,32.00
2018-03-25T21:49:45.897Z,30.62
2018-03-25T21:52:14.978Z,29.50
2018-03-25T21:54:44.845Z,30.70
2018-03-25T21:57:13.922Z,29.35
2018-03-25T21:59:43.854Z,31.40
2018-03-25T22:02:13.113Z,31.70
2018-03-25T22:04:42.190Z,31.48
2018-03-25T22:07:12.030Z,30.27
2018-03-25T22:09:41.103Z,30.02
2018-03-25T22:12:10.173Z,30.55
2018-03-25T22:14:39.250Z,32.75
2018-03-25T22:17:08.542Z,31.35
2018-03-25T22:19:37.623Z,31.15
2018-03-25T22:22:06.690Z,29.60
2018-03-25T22:24:35.798Z,31.15
2018-03-25T22:27:04.924Z,31.10
2018-03-25T22:29:34.050Z,30.23
2018-03-25T22:32:03.129Z,30.62
2018-03-25T22:34:32.957Z,30.70
2018-03-25T22:37:02.832Z,30.40
2018-03-25T22:39:31.911Z,30.27
2018-03-25T22:42:01.009Z,30.05
2018-03-25T22:44:30.114Z,30.10
2018-03-25T22:46:59.993Z,30.27
2018-03-25T22:49:29.117Z,29.60
2018-03-25T22:51:58.253Z,30.58
2018-03-25T22:54:28.119Z,32.53
2018-03-25T22:56:57.191Z,29.95
2018-03-25T22:59:27.050Z,30.37
2018-03-25T23:01:56.114Z,28.77
2018-03-25T23:04:25.215Z,29.10
2018-03-25T23:06:54.282Z,27.42
2018-03-25T23:09:23.393Z,28.90
2018-03-25T23:11:52.459Z,30.33
2018-03-25T23:14:21.526Z,28.98
2018-03-25T23:16:50.603Z,29.17
2018-03-25T23:19:20.437Z,29.50
2018-03-25T23:21:49.581Z,28.90
2018-03-25T23:24:18.653Z,29.45
2018-03-25T23:26:47.761Z,31.55
2018-03-25T23:29:17.594Z,29.50
2018-03-25T23:31:46.667Z,29.70
2018-03-25T23:34:15.741Z,29.90
2018-03-25T23:36:44.939Z,28.42
2018-03-25T23:39:14.010Z,27.67
2018-03-25T23:41:43.134Z,30.08
2018-03-25T23:44:12.974Z,28.50
2018-03-25T23:46:42.130Z,28.10
2018-03-25T23:49:11.199Z,30.00
2018-03-25T23:51:40.270Z,28.73
2018-03-25T23:54:09.389Z,27.90
2018-03-25T23:56:39.227Z,30.90
2018-03-25T23:59:09.063Z,29.70
